Terminal Aerodrome Forecast
Issued by NWS Jackson, MS

Current Version | Previous Version | Text Only | Print | Product List | Glossary On
Versions: 1 2 3 4 5 6 7 8 9 10 11 12 13 14
000
FTUS44 KMEG 211121
TAFTUP
TAF
KTUP 211121Z 2112/2212 06005KT P6SM SKC
     FM211800 12005KT P6SM SCT040 SCT250
     FM220100 16006KT P6SM BKN035 BKN250
     FM220500 18006KT P6SM SCT008 OVC025
      TEMPO 2209/2212 BKN008=

USA.gov is the U.S. government's official web portal to all federal, state and local government web resources and services.